createdAt,value
2022-11-20T00:01:26.851Z,100.00
2022-11-20T00:04:13.834Z,100.00
2022-11-20T00:07:01.250Z,100.00
2022-11-20T00:09:48.219Z,100.00
2022-11-20T00:12:35.427Z,99.10
2022-11-20T00:15:22.387Z,100.00
2022-11-20T00:18:09.529Z,99.21
2022-11-20T00:21:05.857Z,99.00
2022-11-20T00:23:55.524Z,99.33
2022-11-20T00:26:42.463Z,99.09
2022-11-20T00:29:29.588Z,98.36
2022-11-20T00:32:16.536Z,97.25
2022-11-20T00:35:03.610Z,99.87
2022-11-20T00:37:50.594Z,100.00
2022-11-20T00:40:37.742Z,99.90
2022-11-20T00:43:25.230Z,100.00
2022-11-20T00:46:16.501Z,100.00
2022-11-20T00:49:03.697Z,99.65
2022-11-20T00:51:50.733Z,99.97
2022-11-20T00:54:37.644Z,99.94
2022-11-20T00:57:24.564Z,99.92
2022-11-20T01:00:11.786Z,98.64
2022-11-20T01:02:58.903Z,99.54
2022-11-20T01:05:45.893Z,99.70
2022-11-20T01:08:34.895Z,99.17
2022-11-20T01:11:24.987Z,98.44
2022-11-20T01:14:15.553Z,99.04
2022-11-20T01:17:02.486Z,98.69
2022-11-20T01:19:51.492Z,98.90
2022-11-20T01:22:38.489Z,98.71
2022-11-20T01:25:25.662Z,98.85
2022-11-20T01:28:12.631Z,97.23
2022-11-20T01:30:59.831Z,99.24
2022-11-20T01:33:48.122Z,100.00
2022-11-20T01:36:37.539Z,100.00
2022-11-20T01:39:26.601Z,100.00
2022-11-20T01:42:32.013Z,100.00
2022-11-20T01:46:04.134Z,100.00
2022-11-20T01:48:58.133Z,99.57
2022-11-20T01:51:58.223Z,99.78
2022-11-20T01:54:57.233Z,98.76
2022-11-20T01:57:45.428Z,98.89
2022-11-20T02:00:32.610Z,98.40
2022-11-20T02:03:21.266Z,99.24
2022-11-20T02:06:43.725Z,100.00
2022-11-20T02:09:30.638Z,99.44
2022-11-20T02:12:36.488Z,98.24
2022-11-20T02:15:27.590Z,98.34
2022-11-20T02:18:19.769Z,99.46
2022-11-20T02:21:20.391Z,100.00
2022-11-20T02:24:18.986Z,100.00
2022-11-20T02:27:10.272Z,99.70
2022-11-20T02:30:11.887Z,99.39
2022-11-20T02:32:59.609Z,100.00
2022-11-20T02:35:47.976Z,100.00
2022-11-20T02:38:35.299Z,100.00
2022-11-20T02:41:23.127Z,100.00
2022-11-20T02:44:10.134Z,100.00
2022-11-20T02:46:59.614Z,100.00
2022-11-20T02:49:46.762Z,100.00
2022-11-20T02:52:33.722Z,100.00
2022-11-20T02:55:20.729Z,100.00
2022-11-20T02:58:07.864Z,100.00
2022-11-20T03:00:55.034Z,100.00
2022-11-20T03:03:42.133Z,100.00
2022-11-20T03:06:29.362Z,100.00
2022-11-20T03:09:16.317Z,100.00
2022-11-20T03:12:03.866Z,100.00
2022-11-20T03:14:53.277Z,100.00
2022-11-20T03:17:40.504Z,100.00
2022-11-20T03:20:27.629Z,100.00
2022-11-20T03:23:14.758Z,100.00
2022-11-20T03:26:12.617Z,100.00
2022-11-20T03:29:02.148Z,100.00
2022-11-20T03:31:49.255Z,100.00
2022-11-20T03:34:36.412Z,100.00
2022-11-20T03:37:23.424Z,100.00
2022-11-20T03:40:10.860Z,100.00
2022-11-20T03:42:57.916Z,100.00
2022-11-20T03:45:45.052Z,100.00
2022-11-20T03:48:32.269Z,100.00
2022-11-20T03:51:30.679Z,100.00
2022-11-20T03:54:17.796Z,100.00
2022-11-20T03:57:04.971Z,99.99
2022-11-20T03:59:51.882Z,100.00
2022-11-20T04:02:38.819Z,100.00
2022-11-20T04:05:26.113Z,100.00
2022-11-20T04:08:13.097Z,100.00
2022-11-20T04:11:23.287Z,100.00
2022-11-20T04:14:15.624Z,100.00
2022-11-20T04:17:02.747Z,100.00
2022-11-20T04:19:49.877Z,100.00
2022-11-20T04:22:36.808Z,100.00
2022-11-20T04:25:23.766Z,100.00
2022-11-20T04:28:10.871Z,100.00
2022-11-20T04:31:31.410Z,100.00
2022-11-20T04:34:18.336Z,100.00
2022-11-20T04:37:05.261Z,100.00
2022-11-20T04:39:52.179Z,100.00
2022-11-20T04:42:39.357Z,100.00
2022-11-20T04:45:26.256Z,100.00
2022-11-20T04:48:13.249Z,100.00
2022-11-20T04:51:04.987Z,100.00
2022-11-20T04:53:52.212Z,100.00
2022-11-20T04:56:39.123Z,100.00
2022-11-20T04:59:26.181Z,100.00
2022-11-20T05:02:13.670Z,100.00
2022-11-20T05:05:00.808Z,100.00
2022-11-20T05:07:47.682Z,100.00
2022-11-20T05:10:34.643Z,100.00
2022-11-20T05:13:21.703Z,100.00
2022-11-20T05:16:11.437Z,100.00
2022-11-20T05:18:58.450Z,100.00
2022-11-20T05:21:45.400Z,100.00
2022-11-20T05:24:32.513Z,100.00
2022-11-20T05:27:19.663Z,100.00
2022-11-20T05:30:07.802Z,100.00
2022-11-20T05:32:54.888Z,100.00
2022-11-20T05:35:42.155Z,100.00
2022-11-20T05:38:29.345Z,100.00
2022-11-20T05:41:19.349Z,100.00
2022-11-20T05:44:06.330Z,100.00
2022-11-20T05:46:53.460Z,100.00
2022-11-20T05:49:40.584Z,100.00
2022-11-20T05:52:30.676Z,100.00
2022-11-20T05:55:17.698Z,100.00
2022-11-20T05:58:04.797Z,100.00
2022-11-20T06:00:52.065Z,100.00
2022-11-20T06:03:40.225Z,100.00
2022-11-20T06:06:27.291Z,100.00
2022-11-20T06:09:14.398Z,100.00
2022-11-20T06:12:01.708Z,100.00
2022-11-20T06:14:48.564Z,100.00
2022-11-20T06:17:35.497Z,100.00
2022-11-20T06:20:23.120Z,100.00
2022-11-20T06:23:10.212Z,100.00
2022-11-20T06:25:57.138Z,100.00
2022-11-20T06:28:44.428Z,100.00
2022-11-20T06:31:33.815Z,100.00
2022-11-20T06:34:20.801Z,100.00
2022-11-20T06:37:07.702Z,100.00
2022-11-20T06:39:54.584Z,100.00
2022-11-20T06:42:41.659Z,100.00
2022-11-20T06:45:28.977Z,100.00
2022-11-20T06:48:15.918Z,100.00
2022-11-20T06:51:07.936Z,100.00
2022-11-20T06:53:54.944Z,100.00
2022-11-20T06:56:42.056Z,100.00
2022-11-20T06:59:29.021Z,100.00
2022-11-20T07:02:15.954Z,100.00
2022-11-20T07:05:03.192Z,100.00
2022-11-20T07:07:50.148Z,100.00
2022-11-20T07:10:37.168Z,100.00
2022-11-20T07:13:24.379Z,100.00
2022-11-20T07:16:11.507Z,100.00
2022-11-20T07:18:58.734Z,100.00
2022-11-20T07:21:45.642Z,100.00
2022-11-20T07:24:32.577Z,100.00
2022-11-20T07:27:19.701Z,100.00
2022-11-20T07:30:07.868Z,100.00
2022-11-20T07:32:56.452Z,100.00
2022-11-20T07:35:43.424Z,100.00
2022-11-20T07:38:30.864Z,100.00
2022-11-20T07:41:17.945Z,100.00
2022-11-20T07:44:04.968Z,100.00
2022-11-20T07:46:51.851Z,100.00
2022-11-20T07:49:44.897Z,100.00
2022-11-20T07:52:31.808Z,100.00
2022-11-20T07:55:18.680Z,100.00
2022-11-20T07:58:05.592Z,100.00
2022-11-20T08:00:52.723Z,100.00
2022-11-20T08:03:39.768Z,100.00
2022-11-20T08:06:27.653Z,100.00
2022-11-20T08:09:14.557Z,100.00
2022-11-20T08:12:20.169Z,100.00
2022-11-20T08:15:12.817Z,100.00
2022-11-20T08:18:29.007Z,100.00
2022-11-20T08:21:08.970Z,100.00
2022-11-20T08:23:55.949Z,100.00
2022-11-20T08:26:43.132Z,100.00
2022-11-20T08:29:30.147Z,100.00
2022-11-20T08:32:17.086Z,100.00
2022-11-20T08:35:04.577Z,100.00
2022-11-20T08:37:51.733Z,100.00
2022-11-20T08:40:38.671Z,100.00
2022-11-20T08:43:25.636Z,100.00
2022-11-20T08:46:13.031Z,100.00
2022-11-20T08:49:00.292Z,99.70
2022-11-20T08:51:49.351Z,98.36
2022-11-20T08:54:36.288Z,97.55
2022-11-20T08:57:23.255Z,98.90
2022-11-20T09:00:12.281Z,98.48
2022-11-20T09:03:00.450Z,97.22
2022-11-20T09:05:47.368Z,98.33
2022-11-20T09:08:36.370Z,98.12
2022-11-20T09:11:23.579Z,100.00
2022-11-20T09:14:10.568Z,99.58
2022-11-20T09:16:57.807Z,100.00
2022-11-20T09:19:45.089Z,98.07
2022-11-20T09:22:32.419Z,96.46
2022-11-20T09:25:19.361Z,96.38
2022-11-20T09:28:06.369Z,96.99
2022-11-20T09:30:53.282Z,98.44
2022-11-20T09:33:40.184Z,100.00
2022-11-20T09:36:27.369Z,100.00
2022-11-20T09:39:14.313Z,99.79
2022-11-20T09:42:27.499Z,100.00
2022-11-20T09:45:39.143Z,100.00
2022-11-20T09:49:12.707Z,99.41
2022-11-20T09:52:37.720Z,98.69
2022-11-20T09:55:25.449Z,99.92
2022-11-20T09:58:51.889Z,100.00
2022-11-20T10:01:41.863Z,100.00
2022-11-20T10:04:35.547Z,100.00
2022-11-20T10:07:32.692Z,100.00
2022-11-20T10:10:41.026Z,100.00
2022-11-20T10:13:47.088Z,100.00
2022-11-20T10:16:52.866Z,100.00
2022-11-20T10:19:48.866Z,100.00
2022-11-20T10:22:53.109Z,100.00
2022-11-20T10:25:43.900Z,100.00
2022-11-20T10:29:21.093Z,100.00
2022-11-20T10:32:15.868Z,100.00
2022-11-20T10:35:35.246Z,100.00
2022-11-20T10:38:27.104Z,100.00
2022-11-20T10:41:27.183Z,100.00
2022-11-20T10:44:47.160Z,100.00
2022-11-20T10:47:34.548Z,100.00
2022-11-20T10:50:23.719Z,100.00
2022-11-20T10:53:52.136Z,100.00
2022-11-20T10:56:51.756Z,100.00
2022-11-20T11:00:02.781Z,100.00
2022-11-20T11:02:52.227Z,100.00
2022-11-20T11:05:45.485Z,100.00
2022-11-20T11:08:38.637Z,100.00
2022-11-20T11:11:29.669Z,100.00
2022-11-20T11:14:17.454Z,92.54
2022-11-20T11:17:04.397Z,89.24
2022-11-20T11:20:18.245Z,86.46
2022-11-20T11:23:05.616Z,85.77
2022-11-20T11:25:59.694Z,81.71
2022-11-20T11:29:00.326Z,81.00
2022-11-20T11:31:47.317Z,80.92
2022-11-20T11:34:34.354Z,80.36
2022-11-20T11:37:25.103Z,79.10
2022-11-20T11:40:28.301Z,82.49
2022-11-20T11:43:40.263Z,82.95
2022-11-20T11:46:37.756Z,80.58
2022-11-20T11:49:25.240Z,78.44
2022-11-20T11:52:23.626Z,78.85
2022-11-20T11:55:24.707Z,79.08
2022-11-20T11:58:42.290Z,78.93
2022-11-20T12:01:57.454Z,78.87
2022-11-20T12:04:56.121Z,76.97
2022-11-20T12:07:47.768Z,79.91
2022-11-20T12:10:50.039Z,77.59
2022-11-20T12:14:05.569Z,80.69
2022-11-20T12:16:54.224Z,80.72
2022-11-20T12:19:41.983Z,81.79
2022-11-20T12:23:23.827Z,81.61
2022-11-20T12:26:50.494Z,76.29
2022-11-20T12:30:17.959Z,77.42
2022-11-20T12:33:27.177Z,75.57
2022-11-20T12:36:42.059Z,76.59
2022-11-20T12:39:37.349Z,74.93
2022-11-20T12:42:55.983Z,74.77
2022-11-20T12:46:08.801Z,76.53
2022-11-20T12:49:18.051Z,74.21
2022-11-20T12:52:37.041Z,77.30
2022-11-20T12:55:41.876Z,77.83
2022-11-20T12:58:56.489Z,77.17
2022-11-20T13:01:52.240Z,78.57
2022-11-20T13:05:40.929Z,80.04
2022-11-20T13:08:35.928Z,80.31
2022-11-20T13:11:41.530Z,79.68
2022-11-20T13:14:38.822Z,78.24
2022-11-20T13:17:37.966Z,80.40
2022-11-20T13:20:25.463Z,83.66
2022-11-20T13:23:12.666Z,84.05
2022-11-20T13:26:14.682Z,86.15
2022-11-20T13:29:20.244Z,86.17
2022-11-20T13:32:19.195Z,86.83
2022-11-20T13:35:06.604Z,86.30
2022-11-20T13:38:04.490Z,86.95
2022-11-20T13:40:59.748Z,86.20
2022-11-20T13:43:49.124Z,87.49
2022-11-20T13:46:45.627Z,88.68
2022-11-20T13:49:45.811Z,86.97
2022-11-20T13:52:56.377Z,88.10
2022-11-20T13:56:32.523Z,84.15
2022-11-20T13:59:57.611Z,85.19
2022-11-20T14:02:50.104Z,88.93
2022-11-20T14:05:52.257Z,91.14
2022-11-20T14:08:44.236Z,92.70
2022-11-20T14:11:32.236Z,92.29
2022-11-20T14:14:22.188Z,92.70
2022-11-20T14:17:19.322Z,94.27
2022-11-20T14:20:12.800Z,94.65
2022-11-20T14:22:59.953Z,95.94
2022-11-20T14:25:47.051Z,95.88
2022-11-20T14:28:34.131Z,95.57
2022-11-20T14:31:26.127Z,97.50
2022-11-20T14:34:28.843Z,98.28
2022-11-20T14:37:22.769Z,100.00
2022-11-20T14:40:27.927Z,99.93
2022-11-20T14:43:29.057Z,100.00
2022-11-20T14:46:16.513Z,100.00
2022-11-20T14:49:05.154Z,100.00
2022-11-20T14:52:14.085Z,100.00
2022-11-20T14:55:01.004Z,100.00
2022-11-20T14:57:56.252Z,100.00
2022-11-20T15:00:53.837Z,100.00
2022-11-20T15:03:42.138Z,100.00
2022-11-20T15:06:29.395Z,100.00
2022-11-20T15:09:16.996Z,100.00
2022-11-20T15:12:04.872Z,100.00
2022-11-20T15:14:51.814Z,100.00
2022-11-20T15:17:41.814Z,100.00
2022-11-20T15:20:34.123Z,100.00
2022-11-20T15:23:21.150Z,100.00
2022-11-20T15:26:09.712Z,100.00
2022-11-20T15:28:56.686Z,100.00
2022-11-20T15:31:45.741Z,100.00
2022-11-20T15:34:32.893Z,100.00
2022-11-20T15:37:19.800Z,100.00
2022-11-20T15:40:08.002Z,100.00
2022-11-20T15:43:06.976Z,100.00
2022-11-20T15:46:02.339Z,100.00
2022-11-20T16:06:03.290Z,100.00
2022-11-20T16:08:50.241Z,92.69
2022-11-20T16:11:38.388Z,86.91
2022-11-20T16:14:43.752Z,87.79
2022-11-20T16:17:43.440Z,88.35
2022-11-20T16:20:30.437Z,89.22
2022-11-20T16:23:17.798Z,86.92
2022-11-20T16:26:14.802Z,88.08
2022-11-20T16:29:03.559Z,87.98
2022-11-20T16:31:50.514Z,87.84
2022-11-20T16:34:37.407Z,87.86
2022-11-20T16:37:24.310Z,88.01
2022-11-20T16:40:12.276Z,88.09
2022-11-20T16:43:08.570Z,88.64
2022-11-20T16:45:55.489Z,88.42
2022-11-20T16:48:42.402Z,88.89
2022-11-20T16:51:31.493Z,87.77
2022-11-20T16:54:21.265Z,87.22
2022-11-20T16:57:08.466Z,87.79
2022-11-20T17:00:00.327Z,87.24
2022-11-20T17:02:49.333Z,87.76
2022-11-20T17:05:36.310Z,88.50
2022-11-20T17:08:23.216Z,89.01
2022-11-20T17:11:13.691Z,89.18
2022-11-20T17:14:01.124Z,89.91
2022-11-20T17:16:47.982Z,90.59
2022-11-20T17:19:34.887Z,91.84
2022-11-20T17:22:21.753Z,91.83
2022-11-20T17:25:08.978Z,92.74
2022-11-20T17:27:55.893Z,92.69
2022-11-20T17:30:42.806Z,91.77
2022-11-20T17:33:30.337Z,92.00
2022-11-20T17:36:20.034Z,91.80
2022-11-20T17:39:07.047Z,92.07
2022-11-20T17:42:12.230Z,92.09
2022-11-20T17:44:59.058Z,90.16
2022-11-20T17:47:46.638Z,89.98
2022-11-20T17:50:33.492Z,90.47
2022-11-20T17:53:21.288Z,91.19
2022-11-20T17:56:26.964Z,91.41
2022-11-20T17:59:13.942Z,89.19
2022-11-20T18:02:03.670Z,90.57
2022-11-20T18:04:51.168Z,90.76
2022-11-20T18:07:41.921Z,91.07
2022-11-20T18:10:32.162Z,91.23
2022-11-20T18:13:18.954Z,91.90
2022-11-20T18:16:07.640Z,90.62
2022-11-20T18:18:58.242Z,91.39
2022-11-20T18:21:45.437Z,90.71
2022-11-20T18:24:32.975Z,88.35
2022-11-20T18:27:20.998Z,88.85
2022-11-20T18:30:08.616Z,89.24
2022-11-20T18:32:56.083Z,90.16
2022-11-20T18:35:43.239Z,89.68
2022-11-20T18:38:30.165Z,89.21
2022-11-20T18:41:38.249Z,90.50
2022-11-20T18:44:48.829Z,91.56
2022-11-20T18:47:39.099Z,91.57
2022-11-20T18:50:26.007Z,90.77
2022-11-20T18:53:12.900Z,90.37
2022-11-20T18:56:04.498Z,90.66
2022-11-20T18:58:51.482Z,90.97
2022-11-20T19:01:38.496Z,90.79
2022-11-20T19:04:25.797Z,91.04
2022-11-20T19:07:13.612Z,89.87
2022-11-20T19:10:03.732Z,90.61
2022-11-20T19:12:51.282Z,90.18
2022-11-20T19:15:38.300Z,90.42
2022-11-20T19:18:25.336Z,89.02
2022-11-20T19:21:15.929Z,88.79
2022-11-20T19:24:04.145Z,87.97
2022-11-20T19:26:51.134Z,89.79
2022-11-20T19:29:38.433Z,88.88
2022-11-20T19:32:25.599Z,89.58
2022-11-20T19:35:13.351Z,90.60
2022-11-20T19:38:05.293Z,91.54
2022-11-20T19:40:52.755Z,92.53
2022-11-20T19:43:39.825Z,90.92
2022-11-20T19:46:28.361Z,92.33
2022-11-20T19:49:15.432Z,92.08
2022-11-20T19:52:02.402Z,91.59
2022-11-20T19:54:49.501Z,92.25
2022-11-20T19:57:36.482Z,92.46
2022-11-20T20:00:29.613Z,93.42
2022-11-20T20:03:19.703Z,93.38
2022-11-20T20:06:13.548Z,93.80
2022-11-20T20:09:04.430Z,92.55
2022-11-20T20:11:51.320Z,92.56
2022-11-20T20:14:38.207Z,92.74
2022-11-20T20:17:25.152Z,93.46
2022-11-20T20:20:12.045Z,93.13
2022-11-20T20:22:58.867Z,92.26
2022-11-20T20:25:48.131Z,92.79
2022-11-20T20:28:36.579Z,93.09
2022-11-20T20:31:26.055Z,93.46
2022-11-20T20:34:13.034Z,93.76
2022-11-20T20:36:59.961Z,93.50
2022-11-20T20:39:46.991Z,93.47
2022-11-20T20:42:33.904Z,93.32
2022-11-20T20:45:20.898Z,93.00
2022-11-20T20:48:07.826Z,92.73
2022-11-20T20:50:56.432Z,92.04
2022-11-20T20:53:43.468Z,92.72
2022-11-20T20:56:30.464Z,93.16
2022-11-20T20:59:17.339Z,91.93
2022-11-20T21:02:04.459Z,92.37
2022-11-20T21:04:52.316Z,92.30
2022-11-20T21:07:59.107Z,91.80
2022-11-20T21:10:46.189Z,91.41
2022-11-20T21:13:35.016Z,91.38
2022-11-20T21:16:25.296Z,90.75
2022-11-20T21:19:12.409Z,91.47
2022-11-20T21:21:59.447Z,91.06
2022-11-20T21:24:46.440Z,90.91
2022-11-20T21:27:33.358Z,90.99
2022-11-20T21:30:20.218Z,91.26
2022-11-20T21:33:07.239Z,92.05
2022-11-20T21:35:54.338Z,92.50
2022-11-20T21:38:41.645Z,92.54
2022-11-20T21:41:32.715Z,92.89
2022-11-20T21:44:35.077Z,92.98
2022-11-20T21:47:22.128Z,92.91
2022-11-20T21:50:09.697Z,92.90
2022-11-20T21:52:56.573Z,93.29
2022-11-20T21:55:43.672Z,93.20
2022-11-20T21:58:31.435Z,92.91
2022-11-20T22:01:20.660Z,91.73
2022-11-20T22:04:08.142Z,92.56
2022-11-20T22:06:55.222Z,92.19
2022-11-20T22:09:42.138Z,91.71
2022-11-20T22:12:29.012Z,91.88
2022-11-20T22:15:27.944Z,92.45
2022-11-20T22:18:22.848Z,91.12
2022-11-20T22:21:10.201Z,91.52
2022-11-20T22:23:57.462Z,91.56
2022-11-20T22:26:44.483Z,91.80
2022-11-20T22:29:31.754Z,90.46
2022-11-20T22:32:18.820Z,91.01
2022-11-20T22:35:05.972Z,92.08
2022-11-20T22:37:52.858Z,92.35
2022-11-20T22:40:40.057Z,92.78
2022-11-20T22:43:27.116Z,92.83
2022-11-20T22:46:16.914Z,92.94
2022-11-20T22:49:06.825Z,92.82
2022-11-20T22:51:53.917Z,92.15
2022-11-20T22:54:41.036Z,93.38
2022-11-20T22:57:27.936Z,93.07
2022-11-20T23:00:15.584Z,92.23
2022-11-20T23:03:02.708Z,91.90
2022-11-20T23:05:49.828Z,92.03
2022-11-20T23:08:38.459Z,92.66
2022-11-20T23:11:27.976Z,92.64
2022-11-20T23:14:16.039Z,92.84
2022-11-20T23:17:03.128Z,92.67
2022-11-20T23:19:50.023Z,93.11
2022-11-20T23:22:36.922Z,92.93
2022-11-20T23:25:24.023Z,92.94
2022-11-20T23:28:11.157Z,93.04
2022-11-20T23:30:58.608Z,92.43
2022-11-20T23:33:46.352Z,92.84
2022-11-20T23:36:33.481Z,92.82
2022-11-20T23:39:20.574Z,92.22
2022-11-20T23:42:07.488Z,91.76
2022-11-20T23:44:54.386Z,92.99
2022-11-20T23:47:41.503Z,92.66
2022-11-20T23:50:28.595Z,92.98
2022-11-20T23:53:16.517Z,92.29
2022-11-20T23:56:05.206Z,93.15
2022-11-20T23:58:52.332Z,92.48
